Back to Top

Language: 

My Weather Underground Personal Weather Station Historical Data with Graphs...

Delerius Weather Station Historical Data
Daily Summary for February 28, 2017 Units:  English    Metric   Both
« Previous Day
Next Day »
Daily Weekly Monthly Yearly Custom
  High: Low: Average:
Temperature: 44.7 °F 33.0 °F 39 °F
Dew Point: 38.8 °F 31.5 °F 35.7 °F
Humidity: 95 % 72 % 88 %
Wind Speed: 14.0 mph 0.0 mph 6.4 mph
Wind Gust: 18.0 mph - -
Wind:- - WSW
Pressure: 29.31 in 28.96 in -
Precipitation: 0.00 in    
Historical Graphs
 
 
Tabular Data for February 28, 2017
Time Temperature Dew Point Pressure Wind Wind Speed Wind Gust Humidity Rainfall Rate (Hourly) solar Conditions
00:00 33.4 °F 31.9 °F 28.97 in West 1.0 mph 1.0 mph 94 % 0.00 in 0 W/m2
00:05 33.3 °F 31.5 °F 28.97 in West 1.0 mph 2.0 mph 93 % 0.00 in 0 W/m2
00:15 33.4 °F 31.9 °F 28.96 in West 2.0 mph 4.0 mph 94 % 0.00 in 0 W/m2
00:20 33.3 °F 31.8 °F 28.97 in West 3.0 mph 4.0 mph 94 % 0.00 in 0 W/m2
00:25 33.3 °F 31.8 °F 28.96 in West 4.0 mph 4.0 mph 94 % 0.00 in 0 W/m2
00:30 33.4 °F 31.9 °F 28.96 in West 5.0 mph 7.0 mph 94 % 0.00 in 0 W/m2
00:40 33.7 °F 32.2 °F 28.97 in WSW 5.0 mph 5.0 mph 94 % 0.00 in 0 W/m2
00:45 33.7 °F 32.2 °F 28.97 in WSW 4.0 mph 5.0 mph 94 % 0.00 in 0 W/m2
00:55 33.4 °F 31.9 °F 28.97 in WSW 2.0 mph 3.0 mph 94 % 0.00 in 0 W/m2
01:00 33.4 °F 31.9 °F 28.97 in WSW 2.0 mph 3.0 mph 94 % 0.00 in 0 W/m2
01:05 33.3 °F 31.8 °F 28.97 in WSW 2.0 mph 6.0 mph 94 % 0.00 in 0 W/m2
01:15 33.0 °F 31.5 °F 28.97 in WSW 2.0 mph 6.0 mph 94 % 0.00 in 0 W/m2
01:20 33.0 °F 31.5 °F 28.97 in WSW 3.0 mph 6.0 mph 94 % 0.00 in 0 W/m2
01:25 33.1 °F 31.6 °F 28.97 in West 4.0 mph 7.0 mph 94 % 0.00 in 0 W/m2
01:30 33.4 °F 32.1 °F 28.97 in West 6.0 mph 8.0 mph 95 % 0.00 in 0 W/m2
01:35 33.7 °F 32.4 °F 28.97 in West 7.0 mph 8.0 mph 95 % 0.00 in 0 W/m2
01:40 34.0 °F 32.7 °F 28.97 in WSW 7.0 mph 7.0 mph 95 % 0.00 in 0 W/m2
01:50 34.2 °F 32.7 °F 28.97 in WNW 6.0 mph 7.0 mph 94 % 0.00 in 0 W/m2
01:55 34.2 °F 32.7 °F 28.97 in WNW 7.0 mph 9.0 mph 94 % 0.00 in 0 W/m2
02:00 34.4 °F 32.9 °F 28.97 in West 7.0 mph 7.0 mph 94 % 0.00 in 0 W/m2
02:05 34.5 °F 33.0 °F 28.97 in WNW 7.0 mph 7.0 mph 94 % 0.00 in 0 W/m2
02:10 34.6 °F 33.1 °F 28.97 in West 7.0 mph 7.0 mph 94 % 0.00 in 0 W/m2
02:20 34.7 °F 33.2 °F 28.97 in West 5.0 mph 5.0 mph 94 % 0.00 in 0 W/m2
02:25 34.7 °F 33.2 °F 28.97 in West 3.0 mph 6.0 mph 94 % 0.00 in 0 W/m2
02:30 34.7 °F 33.2 °F 28.97 in West 3.0 mph 3.0 mph 94 % 0.00 in 0 W/m2
02:35 34.8 °F 33.2 °F 28.98 in WNW 4.0 mph 4.0 mph 94 % 0.00 in 0 W/m2
02:40 34.8 °F 33.2 °F 28.98 in WNW 5.0 mph 5.0 mph 94 % 0.00 in 0 W/m2
02:45 34.9 °F 33.3 °F 28.98 in West 5.0 mph 6.0 mph 94 % 0.00 in 0 W/m2
02:55 34.9 °F 33.3 °F 28.98 in WNW 5.0 mph 9.0 mph 94 % 0.00 in 0 W/m2
03:00 34.9 °F 33.3 °F 28.98 in West 7.0 mph 9.0 mph 94 % 0.00 in 0 W/m2
03:05 35.0 °F 33.2 °F 28.98 in WNW 7.0 mph 9.0 mph 93 % 0.00 in 0 W/m2
03:10 34.9 °F 33.1 °F 28.98 in West 7.0 mph 9.0 mph 93 % 0.00 in 0 W/m2
03:20 34.9 °F 33.1 °F 28.98 in WNW 6.0 mph 6.0 mph 93 % 0.00 in 0 W/m2
03:30 34.8 °F 33.0 °F 28.98 in West 5.0 mph 5.0 mph 93 % 0.00 in 0 W/m2
03:35 34.8 °F 33.0 °F 28.98 in West 4.0 mph 6.0 mph 93 % 0.00 in 0 W/m2
03:40 34.7 °F 32.9 °F 28.97 in West 3.0 mph 3.0 mph 93 % 0.00 in 0 W/m2
03:45 34.6 °F 32.5 °F 28.98 in West 2.0 mph 6.0 mph 92 % 0.00 in 0 W/m2
03:50 34.5 °F 32.4 °F 28.98 in West 1.0 mph 1.0 mph 92 % 0.00 in 0 W/m2
04:00 34.1 °F 32.0 °F 28.98 in WSW 1.0 mph 6.0 mph 92 % 0.00 in 0 W/m2
04:05 34.2 °F 32.4 °F 28.98 in SW 3.0 mph 6.0 mph 93 % 0.00 in 0 W/m2
04:10 34.1 °F 32.3 °F 28.98 in West 4.0 mph 6.0 mph 93 % 0.00 in 0 W/m2
04:15 34.0 °F 32.2 °F 28.98 in WNW 5.0 mph 7.0 mph 93 % 0.00 in 0 W/m2
04:20 34.0 °F 32.2 °F 28.98 in WSW 6.0 mph 6.0 mph 93 % 0.00 in 0 W/m2
04:25 34.0 °F 32.2 °F 28.98 in West 5.0 mph 6.0 mph 93 % 0.00 in 0 W/m2
04:35 34.1 °F 32.6 °F 28.99 in WSW 5.0 mph 6.0 mph 94 % 0.00 in 0 W/m2
04:40 34.0 °F 32.2 °F 28.99 in WSW 4.0 mph 6.0 mph 93 % 0.00 in 0 W/m2
04:45 34.0 °F 32.2 °F 28.99 in WSW 3.0 mph 6.0 mph 93 % 0.00 in 0 W/m2
04:50 33.9 °F 32.1 °F 28.99 in WSW 1.0 mph 1.0 mph 93 % 0.00 in 0 W/m2
05:00 33.6 °F 31.8 °F 29.00 in WSW 1.0 mph 7.0 mph 93 % 0.00 in 0 W/m2
05:05 33.6 °F 31.8 °F 29.00 in West 2.0 mph 7.0 mph 93 % 0.00 in 0 W/m2
05:15 33.8 °F 32.3 °F 29.00 in WNW 3.0 mph 6.0 mph 94 % 0.00 in 0 W/m2
05:20 34.0 °F 32.5 °F 29.00 in WNW 2.0 mph 2.0 mph 94 % 0.00 in 0 W/m2
05:25 34.1 °F 32.6 °F 29.00 in WNW 1.0 mph 6.0 mph 94 % 0.00 in 0 W/m2
05:30 34.2 °F 32.7 °F 29.01 in WSW 2.0 mph 6.0 mph 94 % 0.00 in 0 W/m2
05:40 34.8 °F 33.2 °F 29.01 in WSW 7.0 mph 10.0 mph 94 % 0.00 in 0 W/m2
05:45 34.9 °F 33.3 °F 29.01 in West 9.0 mph 10.0 mph 94 % 0.00 in 0 W/m2
05:50 34.9 °F 33.3 °F 29.01 in WNW 8.0 mph 8.0 mph 94 % 0.00 in 0 W/m2
05:55 34.9 °F 33.1 °F 29.01 in West 5.0 mph 8.0 mph 93 % 0.00 in 0 W/m2
06:00 34.8 °F 33.0 °F 29.01 in West 5.0 mph 6.0 mph 93 % 0.00 in 0 W/m2
06:05 34.9 °F 33.1 °F 29.01 in West 6.0 mph 8.0 mph 93 % 0.00 in 0 W/m2
06:15 34.8 °F 33.0 °F 29.01 in WNW 5.0 mph 7.0 mph 93 % 0.00 in 0 W/m2
06:20 34.7 °F 32.9 °F 29.01 in West 4.0 mph 8.0 mph 93 % 0.00 in 0 W/m2
06:25 34.7 °F 32.9 °F 29.01 in WSW 5.0 mph 13.0 mph 93 % 0.00 in 0 W/m2
06:30 34.8 °F 33.0 °F 29.01 in WSW 8.0 mph 8.0 mph 93 % 0.00 in 0 W/m2
06:35 34.9 °F 33.1 °F 29.02 in West 10.0 mph 10.0 mph 93 % 0.00 in 0 W/m2
06:45 34.8 °F 33.0 °F 29.01 in WSW 8.0 mph 12.0 mph 93 % 0.00 in 0 W/m2
06:50 34.8 °F 33.0 °F 29.01 in WSW 8.0 mph 8.0 mph 93 % 0.00 in 0 W/m2
07:00 34.6 °F 32.8 °F 29.02 in WSW 7.0 mph 7.0 mph 93 % 0.00 in 5 W/m2
07:05 34.5 °F 32.7 °F 29.02 in West 6.0 mph 7.0 mph 93 % 0.00 in 11 W/m2
07:10 34.4 °F 32.6 °F 29.02 in WSW 5.0 mph 8.0 mph 93 % 0.00 in 19 W/m2
07:20 34.4 °F 32.6 °F 29.02 in WSW 7.0 mph 7.0 mph 93 % 0.00 in 26 W/m2
07:25 34.5 °F 32.7 °F 29.02 in WSW 7.0 mph 7.0 mph 93 % 0.00 in 49 W/m2
07:30 34.7 °F 32.9 °F 29.02 in WSW 7.0 mph 7.0 mph 93 % 0.00 in 74 W/m2
07:35 34.9 °F 33.1 °F 29.02 in West 6.0 mph 7.0 mph 93 % 0.00 in 84 W/m2
07:40 35.1 °F 33.3 °F 29.02 in West 6.0 mph 9.0 mph 93 % 0.00 in 98 W/m2
07:45 35.3 °F 33.5 °F 29.03 in West 8.0 mph 13.0 mph 93 % 0.00 in 35 W/m2
07:55 35.4 °F 33.3 °F 29.03 in West 10.0 mph 10.0 mph 92 % 0.00 in 130 W/m2
08:00 35.7 °F 33.6 °F 29.03 in WSW 8.0 mph 9.0 mph 92 % 0.00 in 102 W/m2
08:05 35.9 °F 33.8 °F 29.03 in West 8.0 mph 9.0 mph 92 % 0.00 in 51 W/m2
08:10 36.0 °F 33.9 °F 29.03 in WNW 8.0 mph 8.0 mph 92 % 0.00 in 167 W/m2
08:15 36.2 °F 34.1 °F 29.03 in West 9.0 mph 9.0 mph 92 % 0.00 in 174 W/m2
08:25 36.8 °F 34.4 °F 29.03 in West 9.0 mph 12.0 mph 91 % 0.00 in 239 W/m2
08:30 36.9 °F 34.5 °F 29.03 in West 10.0 mph 10.0 mph 91 % 0.00 in 90 W/m2
08:35 36.9 °F 34.5 °F 29.03 in WSW 10.0 mph 15.0 mph 91 % 0.00 in 97 W/m2
08:40 37.0 °F 34.6 °F 29.03 in WSW 11.0 mph 14.0 mph 91 % 0.00 in 58 W/m2
08:45 37.0 °F 34.6 °F 29.04 in West 12.0 mph 14.0 mph 91 % 0.00 in 98 W/m2
08:50 37.2 °F 34.8 °F 29.03 in West 12.0 mph 12.0 mph 91 % 0.00 in 100 W/m2
09:00 37.8 °F 35.4 °F 29.03 in West 9.0 mph 9.0 mph 91 % 0.00 in 288 W/m2
09:05 38.1 °F 35.4 °F 29.04 in WSW 10.0 mph 16.0 mph 90 % 0.00 in 322 W/m2
09:10 38.4 °F 35.7 °F 29.04 in West 11.0 mph 11.0 mph 90 % 0.00 in 309 W/m2
09:20 38.8 °F 35.8 °F 29.04 in West 12.0 mph 15.0 mph 89 % 0.00 in 355 W/m2
09:25 38.9 °F 35.6 °F 29.05 in WNW 12.0 mph 15.0 mph 88 % 0.00 in 369 W/m2
09:35 38.8 °F 35.6 °F 29.05 in SW 14.0 mph 14.0 mph 88 % 0.00 in 406 W/m2
09:40 38.9 °F 35.6 °F 29.05 in WNW 12.0 mph 12.0 mph 88 % 0.00 in 301 W/m2
09:45 39.1 °F 35.8 °F 29.05 in WNW 10.0 mph 14.0 mph 88 % 0.00 in 394 W/m2
09:50 39.4 °F 36.1 °F 29.05 in West 8.0 mph 8.0 mph 88 % 0.00 in 192 W/m2
09:55 39.8 °F 36.5 °F 29.05 in West 8.0 mph 15.0 mph 88 % 0.00 in 353 W/m2
10:05 40.4 °F 35.9 °F 29.05 in West 11.0 mph 13.0 mph 84 % 0.00 in 417 W/m2
10:10 40.7 °F 36.2 °F 29.05 in WSW 11.0 mph 11.0 mph 84 % 0.00 in 450 W/m2
10:15 41.1 °F 36.6 °F 29.05 in West 9.0 mph 12.0 mph 84 % 0.00 in 429 W/m2
10:20 41.3 °F 36.8 °F 29.05 in WNW 10.0 mph 16.0 mph 84 % 0.00 in 439 W/m2
10:25 41.5 °F 36.7 °F 29.05 in West 11.0 mph 16.0 mph 83 % 0.00 in 543 W/m2
10:30 42.0 °F 37.2 °F 29.05 in WSW 10.0 mph 13.0 mph 83 % 0.00 in 552 W/m2
10:40 42.0 °F 36.9 °F 29.05 in West 11.0 mph 11.0 mph 82 % 0.00 in 418 W/m2
10:45 42.2 °F 37.1 °F 29.05 in WSW 10.0 mph 11.0 mph 82 % 0.00 in 485 W/m2
10:50 42.4 °F 37.0 °F 29.06 in WSW 9.0 mph 13.0 mph 81 % 0.00 in 476 W/m2
10:55 42.5 °F 36.8 °F 29.05 in West 9.0 mph 13.0 mph 80 % 0.00 in 612 W/m2
11:00 42.7 °F 37.0 °F 29.05 in West 10.0 mph 10.0 mph 80 % 0.00 in 612 W/m2
11:10 42.6 °F 36.9 °F 29.05 in West 13.0 mph 14.0 mph 80 % 0.00 in 520 W/m2
11:15 42.6 °F 36.9 °F 29.05 in WSW 13.0 mph 14.0 mph 80 % 0.00 in 169 W/m2
11:20 42.8 °F 37.4 °F 29.05 in WSW 13.0 mph 13.0 mph 81 % 0.00 in 513 W/m2
11:25 43.3 °F 37.9 °F 29.05 in WSW 10.0 mph 13.0 mph 81 % 0.00 in 529 W/m2
11:30 43.3 °F 37.5 °F 29.06 in SW 11.0 mph 13.0 mph 80 % 0.00 in 529 W/m2
11:35 43.0 °F 36.9 °F 29.06 in WSW 14.0 mph 14.0 mph 79 % 0.00 in 548 W/m2
11:45 43.1 °F 37.3 °F 29.06 in West 12.0 mph 13.0 mph 80 % 0.00 in 221 W/m2
11:50 43.4 °F 37.6 °F 29.07 in SW 13.0 mph 14.0 mph 80 % 0.00 in 640 W/m2
11:55 43.7 °F 37.9 °F 29.07 in SW 12.0 mph 15.0 mph 80 % 0.00 in 533 W/m2
12:00 43.9 °F 38.1 °F 29.06 in West 12.0 mph 18.0 mph 80 % 0.00 in 566 W/m2
12:05 44.2 °F 38.4 °F 29.07 in WNW 11.0 mph 18.0 mph 80 % 0.00 in 788 W/m2
12:15 44.1 °F 37.3 °F 29.07 in WNW 12.0 mph 12.0 mph 77 % 0.00 in 199 W/m2
12:20 43.6 °F 37.2 °F 29.07 in WSW 12.0 mph 13.0 mph 78 % 0.00 in 612 W/m2
12:25 43.4 °F 37.0 °F 29.07 in WSW 12.0 mph 15.0 mph 78 % 0.00 in 561 W/m2
12:30 43.6 °F 37.5 °F 29.07 in SSW 11.0 mph 12.0 mph 79 % 0.00 in 534 W/m2
12:40 43.9 °F 36.8 °F 29.07 in SW 13.0 mph 13.0 mph 76 % 0.00 in 541 W/m2
12:45 44.1 °F 37.0 °F 29.07 in West 13.0 mph 15.0 mph 76 % 0.00 in 531 W/m2
12:50 44.3 °F 36.9 °F 29.07 in WNW 11.0 mph 11.0 mph 75 % 0.00 in 510 W/m2
13:00 44.1 °F 36.0 °F 29.07 in West 14.0 mph 15.0 mph 73 % 0.00 in 526 W/m2
13:05 44.1 °F 36.3 °F 29.07 in West 14.0 mph 15.0 mph 74 % 0.00 in 522 W/m2
13:10 44.3 °F 36.5 °F 29.07 in West 12.0 mph 12.0 mph 74 % 0.00 in 538 W/m2
13:15 44.6 °F 36.5 °F 29.07 in West 13.0 mph 15.0 mph 73 % 0.00 in 519 W/m2
13:25 44.6 °F 36.1 °F 29.07 in West 14.0 mph 18.0 mph 72 % 0.00 in 517 W/m2
13:30 44.6 °F 36.5 °F 29.07 in WSW 14.0 mph 14.0 mph 73 % 0.00 in 520 W/m2
13:35 44.7 °F 36.9 °F 29.07 in West 12.0 mph 16.0 mph 74 % 0.00 in 541 W/m2
13:40 44.3 °F 36.2 °F 29.08 in WSW 11.0 mph 11.0 mph 73 % 0.00 in 141 W/m2
13:45 43.9 °F 36.1 °F 29.07 in SW 13.0 mph 13.0 mph 74 % 0.00 in 156 W/m2
13:55 44.2 °F 36.8 °F 29.07 in WSW 12.0 mph 15.0 mph 75 % 0.00 in 531 W/m2
14:00 44.5 °F 37.1 °F 29.08 in WSW 11.0 mph 11.0 mph 75 % 0.00 in 527 W/m2
14:05 44.5 °F 37.1 °F 29.08 in SSW 11.0 mph 11.0 mph 75 % 0.00 in 512 W/m2
14:10 44.3 °F 37.2 °F 29.08 in WSW 10.0 mph 13.0 mph 76 % 0.00 in 548 W/m2
14:15 44.3 °F 36.9 °F 29.08 in SW 11.0 mph 13.0 mph 75 % 0.00 in 468 W/m2
14:20 44.4 °F 37.3 °F 29.08 in SW 12.0 mph 12.0 mph 76 % 0.00 in 439 W/m2
14:30 44.4 °F 37.3 °F 29.08 in SSW 10.0 mph 10.0 mph 76 % 0.00 in 267 W/m2
14:35 44.1 °F 37.0 °F 29.09 in SW 9.0 mph 10.0 mph 76 % 0.00 in 213 W/m2
14:40 44.0 °F 37.6 °F 29.09 in SSW 9.0 mph 9.0 mph 78 % 0.00 in 397 W/m2
14:45 44.6 °F 37.5 °F 29.09 in WSW 9.0 mph 9.0 mph 76 % 0.00 in 531 W/m2
14:50 44.6 °F 37.5 °F 29.09 in SW 10.0 mph 10.0 mph 76 % 0.00 in 406 W/m2
15:00 43.9 °F 37.2 °F 29.09 in SW 8.0 mph 8.0 mph 77 % 0.00 in 190 W/m2
15:05 43.8 °F 37.1 °F 29.09 in SW 8.0 mph 8.0 mph 77 % 0.00 in 178 W/m2
15:10 43.6 °F 36.9 °F 29.09 in WSW 7.0 mph 7.0 mph 77 % 0.00 in 214 W/m2
15:15 43.9 °F 37.8 °F 29.09 in WSW 6.0 mph 9.0 mph 79 % 0.00 in 155 W/m2
15:20 43.9 °F 37.5 °F 29.09 in West 7.0 mph 7.0 mph 78 % 0.00 in 102 W/m2
15:25 43.6 °F 37.5 °F 29.09 in SSW 9.0 mph 9.0 mph 79 % 0.00 in 109 W/m2
15:30 43.2 °F 37.1 °F 29.09 in SSW 8.0 mph 10.0 mph 79 % 0.00 in 105 W/m2
15:35 43.0 °F 37.3 °F 29.09 in SW 8.0 mph 10.0 mph 80 % 0.00 in 79 W/m2
15:40 43.0 °F 37.6 °F 29.09 in SSW 7.0 mph 7.0 mph 81 % 0.00 in 65 W/m2
15:45 42.9 °F 37.5 °F 29.10 in SW 6.0 mph 10.0 mph 81 % 0.00 in 65 W/m2
15:50 42.7 °F 37.6 °F 29.10 in SSW 6.0 mph 6.0 mph 82 % 0.00 in 76 W/m2
15:55 42.6 °F 37.8 °F 29.10 in SW 7.0 mph 7.0 mph 83 % 0.00 in 74 W/m2
16:05 42.5 °F 38.0 °F 29.10 in SW 5.0 mph 7.0 mph 84 % 0.00 in 53 W/m2
16:10 42.5 °F 38.0 °F 29.10 in SSW 4.0 mph 6.0 mph 84 % 0.00 in 39 W/m2
16:20 42.3 °F 38.1 °F 29.10 in South 5.0 mph 5.0 mph 85 % 0.00 in 26 W/m2
16:25 42.3 °F 38.4 °F 29.10 in South 4.0 mph 6.0 mph 86 % 0.00 in 28 W/m2
16:30 42.2 °F 38.3 °F 29.10 in SSW 5.0 mph 5.0 mph 86 % 0.00 in 28 W/m2
16:40 41.9 °F 38.3 °F 29.10 in SSW 5.0 mph 6.0 mph 87 % 0.00 in 32 W/m2
16:45 41.9 °F 38.6 °F 29.10 in SSW 4.0 mph 6.0 mph 88 % 0.00 in 26 W/m2
16:50 41.9 °F 38.6 °F 29.10 in South 3.0 mph 6.0 mph 88 % 0.00 in 28 W/m2
16:55 41.9 °F 38.6 °F 29.10 in SSW 2.0 mph 6.0 mph 88 % 0.00 in 18 W/m2
17:00 41.9 °F 38.6 °F 29.10 in South 3.0 mph 3.0 mph 88 % 0.00 in 11 W/m2
17:05 41.7 °F 38.1 °F 29.10 in SSW 4.0 mph 4.0 mph 87 % 0.00 in 9 W/m2
17:15 41.6 °F 38.3 °F 29.11 in South 3.0 mph 5.0 mph 88 % 0.00 in 5 W/m2
17:20 41.5 °F 38.2 °F 29.11 in South 4.0 mph 4.0 mph 88 % 0.00 in 5 W/m2
17:25 41.4 °F 38.1 °F 29.11 in South 4.0 mph 5.0 mph 88 % 0.00 in 5 W/m2
17:30 41.3 °F 38.3 °F 29.11 in South 4.0 mph 6.0 mph 89 % 0.00 in 0 W/m2
17:35 41.3 °F 38.3 °F 29.11 in SSE 3.0 mph 6.0 mph 89 % 0.00 in 0 W/m2
17:45 41.2 °F 38.2 °F 29.12 in South 2.0 mph 6.0 mph 89 % 0.00 in 0 W/m2
17:50 41.2 °F 38.5 °F 29.12 in SSE 2.0 mph 6.0 mph 90 % 0.00 in 0 W/m2
17:55 41.1 °F 38.4 °F 29.12 in South 2.0 mph 6.0 mph 90 % 0.00 in 0 W/m2
18:00 41.1 °F 38.4 °F 29.12 in South 2.0 mph 2.0 mph 90 % 0.00 in 0 W/m2
18:05 41.1 °F 38.4 °F 29.12 in South 2.0 mph 6.0 mph 90 % 0.00 in 0 W/m2
18:10 41.0 °F 38.3 °F 29.12 in South 2.0 mph 2.0 mph 90 % 0.00 in 0 W/m2
18:20 41.1 °F 38.7 °F 29.13 in Calm   6.0 mph 91 % 0.00 in 0 W/m2
18:25 41.1 °F 38.7 °F 29.13 in Calm   6.0 mph 91 % 0.00 in 0 W/m2
18:30 41.2 °F 38.8 °F 29.13 in SSW 1.0 mph 6.0 mph 91 % 0.00 in 0 W/m2
18:35 41.2 °F 38.8 °F 29.13 in SSW 1.0 mph 6.0 mph 91 % 0.00 in 0 W/m2
18:45 41.2 °F 38.5 °F 29.14 in SSW 2.0 mph 2.0 mph 90 % 0.00 in 0 W/m2
18:50 41.2 °F 38.5 °F 29.14 in WSW 2.0 mph 6.0 mph 90 % 0.00 in 0 W/m2
18:55 41.2 °F 38.5 °F 29.15 in WSW 2.0 mph 6.0 mph 90 % 0.00 in 0 W/m2
19:05 41.2 °F 38.2 °F 29.15 in WSW 4.0 mph 6.0 mph 89 % 0.00 in 0 W/m2
19:10 41.1 °F 38.1 °F 29.16 in WSW 5.0 mph 8.0 mph 89 % 0.00 in 0 W/m2
19:15 41.0 °F 37.7 °F 29.16 in WSW 6.0 mph 8.0 mph 88 % 0.00 in 0 W/m2
19:25 40.8 °F 37.2 °F 29.16 in West 4.0 mph 6.0 mph 87 % 0.00 in 0 W/m2
19:30 40.7 °F 37.1 °F 29.16 in West 3.0 mph 3.0 mph 87 % 0.00 in 0 W/m2
19:35 40.5 °F 36.9 °F 29.16 in WNW 3.0 mph 4.0 mph 87 % 0.00 in 0 W/m2
19:40 40.4 °F 36.8 °F 29.17 in WNW 3.0 mph 3.0 mph 87 % 0.00 in 0 W/m2
19:45 40.2 °F 36.6 °F 29.17 in WNW 2.0 mph 6.0 mph 87 % 0.00 in 0 W/m2
19:50 40.2 °F 36.9 °F 29.17 in WNW 1.0 mph 6.0 mph 88 % 0.00 in 0 W/m2
20:00 40.1 °F 36.8 °F 29.17 in WNW 1.0 mph 6.0 mph 88 % 0.00 in 0 W/m2
20:05 40.0 °F 36.7 °F 29.18 in WNW 1.0 mph 6.0 mph 88 % 0.00 in 0 W/m2
20:10 40.0 °F 37.0 °F 29.18 in WNW 1.0 mph 6.0 mph 89 % 0.00 in 0 W/m2
20:15 40.0 °F 37.0 °F 29.18 in WNW 2.0 mph 6.0 mph 89 % 0.00 in 0 W/m2
20:20 40.0 °F 37.0 °F 29.19 in WNW 2.0 mph 6.0 mph 89 % 0.00 in 0 W/m2
20:30 40.1 °F 37.1 °F 29.19 in WNW 2.0 mph 6.0 mph 89 % 0.00 in 0 W/m2
20:35 40.1 °F 37.1 °F 29.20 in WNW 4.0 mph 6.0 mph 89 % 0.00 in 0 W/m2
20:40 40.1 °F 37.4 °F 29.20 in NW 5.0 mph 6.0 mph 90 % 0.00 in 0 W/m2
20:45 40.2 °F 37.5 °F 29.20 in NW 5.0 mph 6.0 mph 90 % 0.00 in 0 W/m2
20:50 40.2 °F 37.2 °F 29.21 in NW 3.0 mph 3.0 mph 89 % 0.00 in 0 W/m2
20:55 40.2 °F 37.2 °F 29.21 in WNW 3.0 mph 6.0 mph 89 % 0.00 in 0 W/m2
21:00 40.2 °F 37.5 °F 29.22 in NW 4.0 mph 6.0 mph 90 % 0.00 in 0 W/m2
21:05 40.3 °F 37.6 °F 29.22 in WNW 3.0 mph 6.0 mph 90 % 0.00 in 0 W/m2
21:10 40.3 °F 37.6 °F 29.22 in WNW 3.0 mph 6.0 mph 90 % 0.00 in 0 W/m2
21:15 40.4 °F 37.7 °F 29.23 in WNW 5.0 mph 7.0 mph 90 % 0.00 in 0 W/m2
21:25 40.5 °F 38.1 °F 29.24 in WNW 6.0 mph 9.0 mph 91 % 0.00 in 0 W/m2
21:30 40.4 °F 38.0 °F 29.24 in WNW 6.0 mph 7.0 mph 91 % 0.00 in 0 W/m2
21:35 40.3 °F 38.2 °F 29.24 in WNW 6.0 mph 7.0 mph 92 % 0.00 in 0 W/m2
21:45 40.2 °F 38.1 °F 29.24 in WNW 5.0 mph 6.0 mph 92 % 0.00 in 0 W/m2
21:50 40.1 °F 38.0 °F 29.24 in WNW 5.0 mph 5.0 mph 92 % 0.00 in 0 W/m2
21:55 40.1 °F 38.0 °F 29.25 in WNW 5.0 mph 6.0 mph 92 % 0.00 in 0 W/m2
22:00 39.9 °F 37.8 °F 29.25 in WNW 5.0 mph 7.0 mph 92 % 0.00 in 0 W/m2
22:10 39.7 °F 37.6 °F 29.26 in NW 6.0 mph 8.0 mph 92 % 0.00 in 0 W/m2
22:15 39.6 °F 37.7 °F 29.26 in NW 7.0 mph 8.0 mph 93 % 0.00 in 0 W/m2
22:20 39.6 °F 37.7 °F 29.26 in NW 7.0 mph 7.0 mph 93 % 0.00 in 0 W/m2
22:25 39.5 °F 37.6 °F 29.26 in NW 6.0 mph 7.0 mph 93 % 0.00 in 0 W/m2
22:30 39.5 °F 37.6 °F 29.26 in NW 6.0 mph 6.0 mph 93 % 0.00 in 0 W/m2
22:35 39.4 °F 37.5 °F 29.27 in WNW 6.0 mph 6.0 mph 93 % 0.00 in 0 W/m2
22:45 39.5 °F 37.6 °F 29.27 in WNW 4.0 mph 6.0 mph 93 % 0.00 in 0 W/m2
22:50 39.5 °F 37.6 °F 29.28 in WNW 3.0 mph 3.0 mph 93 % 0.00 in 0 W/m2
22:55 39.5 °F 37.6 °F 29.28 in WNW 3.0 mph 6.0 mph 93 % 0.00 in 0 W/m2
23:00 39.3 °F 37.4 °F 29.28 in West 5.0 mph 12.0 mph 93 % 0.00 in 0 W/m2
23:05 39.2 °F 37.1 °F 29.28 in NNW 6.0 mph 12.0 mph 92 % 0.00 in 0 W/m2
23:15 38.8 °F 36.7 °F 29.29 in WNW 7.0 mph 8.0 mph 92 % 0.00 in 0 W/m2
23:20 38.7 °F 36.6 °F 29.29 in West 6.0 mph 6.0 mph 92 % 0.00 in 0 W/m2
23:25 38.5 °F 36.4 °F 29.30 in NW 7.0 mph 7.0 mph 92 % 0.00 in 0 W/m2
23:30 38.4 °F 36.3 °F 29.30 in WNW 7.0 mph 7.0 mph 92 % 0.00 in 0 W/m2
23:35 38.2 °F 36.1 °F 29.31 in WNW 7.0 mph 7.0 mph 92 % 0.00 in 0 W/m2
23:40 38.1 °F 36.0 °F 29.31 in WNW 6.0 mph 6.0 mph 92 % 0.00 in 0 W/m2
23:50 37.9 °F 35.8 °F 29.31 in WNW 5.0 mph 6.0 mph 92 % 0.00 in 0 W/m2
23:55 37.7 °F 35.6 °F 29.31 in NW 5.0 mph 8.0 mph 92 % 0.00 in 0 W/m2
Delerius-Weather
Compliments of Weather Underground - 2 mb

Data updates at regular intervals.